KMSV

Details ICAO KMSV
Name SULLIVAN CO INTL
Region United States
Timezone America/New_York (UTC-5.0)
Plans Departing 5
Arriving 9
Stats Elevation 1,403 ft / 428 m (AMSL)
Location 41.701650° -74.795014°
Runways 1
Magnetic Variation 12.728° W
Sunrise 2017-12-17 12:22:06 UTC / 2017-12-17 07:22:06 Local
Sunset 2017-12-17 21:31:26 UTC / 2017-12-17 16:31:26 Local
Advertisement - Login to hide

Runways

ID Width Length Bearing (true) Bearing (mag) Surface Threshold Offset Overrun Length
15 150 ft / 46 m 6,299 ft / 1,920 m 143.04° 155.77° Asphalt 300 ft / 91 m 0 ft / 0 m
33 150 ft / 46 m 6,299 ft / 1,920 m 323.05° 335.78° Asphalt 300 ft / 91 m 0 ft / 0 m

Approach Navaids

Runway Type Ident Frequency Range Bearing (true) Bearing (mag) Slope Elevation
15 Localiser IMSV 109.10 MHz 18 nm / 33 km 143.05° 155.78° - 1,403 ft / 428 m (AMSL)
15 Glidescope IMSV 109.10 MHz 10 nm / 19 km 143.04° 155.77° 3.00° 1,403 ft / 428 m (AMSL)

Map

Weather


0- 5 10 15 20 25 30 35+ Temperature / ° C

Clouds and Precipitation
Forecast for 2017-12-17 12:00 UTC. Updated an hour ago

Ground ~20,000 ft ~40,000 ft Winds

METAR

KMSV 170956Z AUTO 29005KT 10SM OVC019 M06/M09 A3020 RMK AO2 SLP246 T10611089 FZRANO

TAF

Not found

Frequencies

Recorded 134.02 MHz AWOS 3
Clearance 121.60 MHz CLNC DEL
Unicom 122.80 MHz CTAF/UNICOM
Approach 132.75 MHz NEW YORK APP/DEP
Warning: Do not use this data for real-world aviation or navigation. No guarantee of current accuracy is given.